Time,TemperatureF,DewpointF,PressureIn,WindDirection,WindDirectionDegrees,WindSpeedMPH,WindSpeedGustMPH,Humidity,HourlyPrecipIn,Conditions,Clouds,dailyrainin,SoftwareType,DateUTC
2013-02-27 00:00:00,38.0,33.9,29.40,WSW,248,9.0,16.0,85,0.01,,SKC,0.00,VWS V14.01,2013-02-27 05:00:00,
2013-02-27 01:00:00,38.1,34.0,29.40,West,270,8.0,16.0,85,0.00,,SKC,0.00,VWS V14.01,2013-02-27 06:00:00,
2013-02-27 02:00:00,38.1,34.6,29.39,West,270,7.0,12.0,87,0.00,,SKC,0.00,VWS V14.01,2013-02-27 07:00:00,
2013-02-27 03:00:00,38.0,35.0,29.39,West,270,4.0,10.0,89,0.00,,SKC,0.00,VWS V14.01,2013-02-27 08:00:00,
2013-02-27 04:00:00,38.6,36.2,29.39,WNW,292,3.0,7.0,91,0.01,,SKC,0.01,VWS V14.01,2013-02-27 09:00:00,
2013-02-27 05:00:00,39.2,36.2,29.41,NW,315,5.0,13.0,89,0.04,,SKC,0.04,VWS V14.01,2013-02-27 10:00:00,
2013-02-27 06:00:00,37.2,34.3,29.44,NW,315,5.0,16.0,89,0.10,,SKC,0.11,VWS V14.01,2013-02-27 11:00:00,
2013-02-27 07:00:00,36.1,33.5,29.45,NW,315,5.0,8.0,90,0.11,,SKC,0.15,VWS V14.01,2013-02-27 12:00:00,
2013-02-27 08:00:00,36.7,34.3,29.47,NW,315,5.0,8.0,91,0.05,,SKC,0.16,VWS V14.01,2013-02-27 13:00:00,
2013-02-27 09:00:00,37.5,34.8,29.49,NW,315,5.0,11.0,90,0.01,,SKC,0.16,VWS V14.01,2013-02-27 14:00:00,
2013-02-27 10:00:00,38.4,34.0,29.50,NW,315,6.0,14.0,84,0.00,,SKC,0.16,VWS V14.01,2013-02-27 15:00:00,
2013-02-27 11:00:00,39.2,34.2,29.49,NW,315,8.0,16.0,82,0.00,,SKC,0.16,VWS V14.01,2013-02-27 16:00:00,
2013-02-27 12:00:00,38.9,34.2,29.50,NW,315,7.0,18.0,83,0.00,,SKC,0.16,VWS V14.01,2013-02-27 17:00:00,
2013-02-27 13:00:00,38.9,33.9,29.49,NW,315,6.0,20.0,82,0.00,,SKC,0.16,VWS V14.01,2013-02-27 18:00:00,
2013-02-27 14:00:00,39.6,33.3,29.48,NW,315,6.0,18.0,78,0.00,,SKC,0.16,VWS V14.01,2013-02-27 19:00:00,
2013-02-27 15:00:00,39.8,33.2,29.49,NW,315,5.0,13.0,77,0.00,,SKC,0.16,VWS V14.01,2013-02-27 20:00:00,
2013-02-27 16:00:00,38.5,34.4,29.51,NW,315,7.0,15.0,85,0.04,,SKC,0.20,VWS V14.01,2013-02-27 21:00:00,
2013-02-27 17:00:00,36.8,33.3,29.52,NNE,22,2.0,12.0,87,0.06,,SKC,0.22,VWS V14.01,2013-02-27 22:00:00,
2013-02-27 18:00:00,35.6,32.4,29.54,NW,315,1.0,9.0,88,0.04,,SKC,0.24,VWS V14.01,2013-02-27 23:00:00,
2013-02-27 19:00:00,34.0,31.1,29.56,NW,315,3.0,12.0,89,0.04,,SKC,0.26,VWS V14.01,2013-02-28 00:00:00,
2013-02-27 20:00:00,33.0,30.4,29.55,NNW,338,0.0,6.0,90,0.03,,SKC,0.27,VWS V14.01,2013-02-28 01:00:00,
2013-02-27 21:00:00,33.2,30.0,29.54,NNW,338,1.0,11.0,88,0.01,,SKC,0.27,VWS V14.01,2013-02-28 02:00:00,
2013-02-27 22:00:00,32.9,29.2,29.54,NW,315,3.0,9.0,86,0.00,,SKC,0.27,VWS V14.01,2013-02-28 03:00:00,
2013-02-27 23:00:00,32.8,28.2,29.53,NW,315,3.0,13.0,83,0.00,,SKC,0.27,VWS V14.01,2013-02-28 04:00:00,